AirNav   Pilot Hours Calculator
 
 964 users online  

6MN8 Underland Airstrip
Medford, Minnesota, USA

GOING TO MEDFORD?


FAA INFORMATION EFFECTIVE 30 JANUARY 2020

Location

FAA Identifier: 6MN8
Lat/Long: 44-09-09.8670N 093-16-20.7680W
44-09.164450N 093-16.346133W
44.1527408,-93.2724356
(estimated)
Elevation: 1145 ft. / 349 m (estimated)
Variation: 03E (1985)
From city: 2 miles SW of MEDFORD, MN
Time zone: UTC -6 (UTC -5 during Daylight Saving Time)
Zip code: 55049

Airport Operations

Airport use: Private use, PERSONAL USE.
Activation date: 11/1977
Control tower: no
ARTCC: MINNEAPOLIS CENTER
FSS: PRINCETON FLIGHT SERVICE STATION
Attendance: IREG
Wind indicator: yes
Segmented circle: no

Airport Communications

WX AWOS-3 at OWA (1.9 nm S): 128.325 (507-455-0642)
WX AWOS-3 at FBL (11 nm N): 111.2 (507-332-2505)
WX AWOS-3 at ACQ (13 nm W): 118.425 (507-835-3657)

Nearby radio navigation aids

VOR radial/distance  VOR name  Freq  Var
FOWr124/5.2HALFWAY VOR/DME111.2002E
MKTr091/27.8MANKATO VOR/DME110.8007E
AELr008/28.6ALBERT LEA VOR/DME109.8001E
FGTr182/29.0FARMINGTON VORTAC115.7006E
RSTr302/36.7ROCHESTER VOR/DME112.0005E
JAYr336/37.8AUSTIN VOR/DME108.2000E

 
NDB name  Hdg/Dist  Freq  Var  ID
TONNA311/6.937902EOW --- .--

Airport Services

Runway Information

Runway N/S

Dimensions: 2600 x 150 ft. / 792 x 46 m
Surface: turf
RUNWAY N  RUNWAY S
Traffic pattern: leftleft
Obstructions: 25 ft. pline, marked, 50 ft. from runwaynone

Airport Ownership and Management from official FAA records

Ownership: Privately-owned
Owner: GARY UNDERLAND
3796 NW 50TH ST.
MEDFORD, MN 55049
Phone 507-451-4653
Manager: GARY UNDERLAND
3796 NW 50TH ST.
MEDFORD, MN 55049
Phone 507-451-4653

Airport Operational Statistics

Aircraft based on the field: 2
Single engine airplanes: 2
    

Additional Remarks

FOR CD CTC MINNEAPOLIS ARTCC AT 651-463-5588.

Instrument Procedures

There are no published instrument procedures at 6MN8.

Some nearby airports with instrument procedures:

KOWA - Owatonna Degner Regional Airport (2 nm S)
KFBL - Faribault Municipal Airport-Liz Wall Strohfus Field (11 nm N)
KACQ - Waseca Municipal Airport (13 nm W)
KTOB - Dodge Center Airport (21 nm SE)
KMKT - Mankato Regional Airport (28 nm W)
 
Loc | Ops | Rwys | IFR | FBO | Links
Com | Nav | Svcs | Stats | Notes
Area around 6MN8 (Underland Airstrip)
 
Road maps at: MapQuest Bing Google
 
Aerial photo
No photo
 
Sectional chart

 
Airport distance calculator
Flying to Underland Airstrip? Find the distance to fly.

From to 6MN8

Sunrise and sunset
Times for 25-Feb-2020
 Local
(UTC-6)
 Zulu
(UTC)
Morning civil twilight06:2912:29
Sunrise06:5812:58
Sunset17:5523:55
Evening civil twilight18:2400:24

Current date and time
Zulu (UTC)  26-Feb-2020 01:43:25
Local (UTC-6)  25-Feb-2020 19:43:25
 
METAR
KOWA 
2nm SE 
260113Z AUTO 01010G15KT 10SM OVC047 01/M07 A3029 RMK AO2
KFBL 
10nm N 
260115Z 36007KT 10SM 00/M06 A3031 RMK AO2
KACQ 
13nm SW 
260115Z AUTO 34008KT 10SM OVC049 M01/M05 A3031 RMK AO2
TAF
KMKT 
28nm W 
251739Z 2518/2618 01013G20KT P6SM BKN150 FM252200 35010KT P6SM SCT025 BKN120 FM260500 33010KT P6SM OVC020 FM261400 33009KT P6SM SKC
NOTAMs
Click for the latest NOTAMs
NOTAMs are issued by the DoD/FAA and will open in a separate window not controlled by AirNav.

 

 
 

Would you like to see your business listed on this page?

 If your business provides an interesting product or service to pilots, flight crews, aircraft, or users of the Underland Airstrip, you should consider listing it here.  To start the listing process, click on the button below
 
Add a business
 

Other Pages about Underland Airstrip

Update a link
 
Copyright © AirNav, LLC. All rights reserved. Privacy Policy  Contact